sensor_id;sensor_type;location;lat;lon;timestamp;pressure;altitude;pressure_sealevel;temperature;humidity
46211;BME280;52144;48.040;-1.594;2023-04-27T00:01:14;101090.59;;;18.70;66.28
46211;BME280;52144;48.040;-1.594;2023-04-27T00:03:42;101084.41;;;18.43;66.38
46211;BME280;52144;48.040;-1.594;2023-04-27T00:06:11;101080.31;;;18.51;68.28
46211;BME280;52144;48.040;-1.594;2023-04-27T00:08:39;101078.59;;;18.74;67.20
46211;BME280;52144;48.040;-1.594;2023-04-27T00:11:07;101082.28;;;18.73;66.62
46211;BME280;52144;48.040;-1.594;2023-04-27T00:13:36;101079.91;;;18.81;67.14
46211;BME280;52144;48.040;-1.594;2023-04-27T00:16:04;101079.59;;;18.97;65.38
46211;BME280;52144;48.040;-1.594;2023-04-27T00:18:32;101076.28;;;18.93;65.46
46211;BME280;52144;48.040;-1.594;2023-04-27T00:20:59;101077.53;;;19.00;64.99
46211;BME280;52144;48.040;-1.594;2023-04-27T00:23:27;101074.38;;;18.82;67.15
46211;BME280;52144;48.040;-1.594;2023-04-27T00:25:55;101075.09;;;18.84;67.63
46211;BME280;52144;48.040;-1.594;2023-04-27T00:28:23;101075.78;;;18.75;68.33
46211;BME280;52144;48.040;-1.594;2023-04-27T00:30:52;101074.03;;;18.74;67.44
46211;BME280;52144;48.040;-1.594;2023-04-27T00:33:20;101071.69;;;18.70;66.43
46211;BME280;52144;48.040;-1.594;2023-04-27T00:35:48;101073.53;;;18.69;66.32
46211;BME280;52144;48.040;-1.594;2023-04-27T00:38:16;101074.50;;;18.68;66.41
46211;BME280;52144;48.040;-1.594;2023-04-27T00:40:43;101073.50;;;18.82;67.05
46211;BME280;52144;48.040;-1.594;2023-04-27T00:43:11;101075.63;;;18.90;67.37
46211;BME280;52144;48.040;-1.594;2023-04-27T00:45:40;101079.31;;;18.89;66.70
46211;BME280;52144;48.040;-1.594;2023-04-27T00:48:10;101074.38;;;18.82;66.15
46211;BME280;52144;48.040;-1.594;2023-04-27T00:50:38;101071.44;;;18.86;67.30
46211;BME280;52144;48.040;-1.594;2023-04-27T00:53:07;101073.41;;;18.83;67.88
46211;BME280;52144;48.040;-1.594;2023-04-27T00:55:34;101063.59;;;18.70;66.34
46211;BME280;52144;48.040;-1.594;2023-04-27T00:58:02;101068.44;;;18.77;66.33
46211;BME280;52144;48.040;-1.594;2023-04-27T01:00:30;101070.59;;;18.85;65.46
46211;BME280;52144;48.040;-1.594;2023-04-27T01:02:59;101070.69;;;18.83;65.64
46211;BME280;52144;48.040;-1.594;2023-04-27T01:05:29;101065.44;;;18.69;64.61
46211;BME280;52144;48.040;-1.594;2023-04-27T01:07:58;101063.25;;;18.50;63.99
46211;BME280;52144;48.040;-1.594;2023-04-27T01:10:25;101073.22;;;18.37;65.46
46211;BME280;52144;48.040;-1.594;2023-04-27T01:12:54;101069.41;;;18.52;67.16
46211;BME280;52144;48.040;-1.594;2023-04-27T01:15:21;101064.41;;;18.59;65.37
46211;BME280;52144;48.040;-1.594;2023-04-27T01:17:56;101060.84;;;18.58;66.31
46211;BME280;52144;48.040;-1.594;2023-04-27T01:20:24;101053.06;;;18.67;66.02
46211;BME280;52144;48.040;-1.594;2023-04-27T01:22:57;101048.25;;;18.70;64.86
46211;BME280;52144;48.040;-1.594;2023-04-27T01:25:26;101050.00;;;18.71;64.58
46211;BME280;52144;48.040;-1.594;2023-04-27T01:27:54;101055.31;;;18.60;65.83
46211;BME280;52144;48.040;-1.594;2023-04-27T01:30:22;101063.13;;;18.52;64.83
46211;BME280;52144;48.040;-1.594;2023-04-27T01:32:49;101053.25;;;18.63;64.39
46211;BME280;52144;48.040;-1.594;2023-04-27T01:35:17;101042.91;;;18.33;64.12
46211;BME280;52144;48.040;-1.594;2023-04-27T01:37:45;101030.75;;;18.15;66.00
46211;BME280;52144;48.040;-1.594;2023-04-27T01:40:13;101040.50;;;18.04;67.89
46211;BME280;52144;48.040;-1.594;2023-04-27T01:42:42;101038.09;;;18.13;66.46
46211;BME280;52144;48.040;-1.594;2023-04-27T01:45:10;101040.28;;;17.82;66.45
46211;BME280;52144;48.040;-1.594;2023-04-27T01:47:38;101031.88;;;17.99;66.99
46211;BME280;52144;48.040;-1.594;2023-04-27T01:50:07;101037.19;;;18.25;66.79
46211;BME280;52144;48.040;-1.594;2023-04-27T01:52:35;101033.16;;;18.07;64.61
46211;BME280;52144;48.040;-1.594;2023-04-27T01:55:03;101041.53;;;18.15;65.99
46211;BME280;52144;48.040;-1.594;2023-04-27T01:57:31;101042.13;;;17.94;66.03
46211;BME280;52144;48.040;-1.594;2023-04-27T02:00:00;101037.59;;;18.08;67.75
46211;BME280;52144;48.040;-1.594;2023-04-27T02:02:28;101033.59;;;18.50;67.46
46211;BME280;52144;48.040;-1.594;2023-04-27T02:04:56;101027.44;;;18.48;66.82
46211;BME280;52144;48.040;-1.594;2023-04-27T02:07:24;101029.91;;;18.14;67.81
46211;BME280;52144;48.040;-1.594;2023-04-27T02:09:51;101024.63;;;18.13;68.54
46211;BME280;52144;48.040;-1.594;2023-04-27T02:12:19;101023.66;;;18.14;69.10
46211;BME280;52144;48.040;-1.594;2023-04-27T02:14:47;101034.25;;;18.04;68.88
46211;BME280;52144;48.040;-1.594;2023-04-27T02:17:16;101019.66;;;18.07;70.86
46211;BME280;52144;48.040;-1.594;2023-04-27T02:19:44;101015.16;;;18.31;68.72
46211;BME280;52144;48.040;-1.594;2023-04-27T02:22:12;101020.75;;;18.04;69.00
46211;BME280;52144;48.040;-1.594;2023-04-27T02:24:39;101021.91;;;18.13;70.61
46211;BME280;52144;48.040;-1.594;2023-04-27T02:27:07;101026.41;;;18.25;71.06
46211;BME280;52144;48.040;-1.594;2023-04-27T02:29:36;101013.22;;;18.33;70.28
46211;BME280;52144;48.040;-1.594;2023-04-27T02:32:05;101009.63;;;18.45;68.77
46211;BME280;52144;48.040;-1.594;2023-04-27T02:34:34;101015.75;;;18.48;71.13
46211;BME280;52144;48.040;-1.594;2023-04-27T02:37:01;101006.91;;;18.45;70.26
46211;BME280;52144;48.040;-1.594;2023-04-27T02:39:29;101006.91;;;18.45;69.89
46211;BME280;52144;48.040;-1.594;2023-04-27T02:41:57;101004.69;;;18.39;70.13
46211;BME280;52144;48.040;-1.594;2023-04-27T02:44:25;101006.41;;;18.40;69.50
46211;BME280;52144;48.040;-1.594;2023-04-27T02:46:52;101010.06;;;18.39;69.78
46211;BME280;52144;48.040;-1.594;2023-04-27T02:49:20;101002.81;;;18.53;69.94
46211;BME280;52144;48.040;-1.594;2023-04-27T02:51:49;101010.63;;;18.69;68.92
46211;BME280;52144;48.040;-1.594;2023-04-27T02:54:17;101007.50;;;18.38;68.28
46211;BME280;52144;48.040;-1.594;2023-04-27T02:56:45;101008.47;;;18.37;68.07
46211;BME280;52144;48.040;-1.594;2023-04-27T02:59:12;101015.38;;;18.41;69.58
46211;BME280;52144;48.040;-1.594;2023-04-27T03:01:41;101017.31;;;18.63;69.03
46211;BME280;52144;48.040;-1.594;2023-04-27T03:04:09;101017.25;;;18.52;69.27
46211;BME280;52144;48.040;-1.594;2023-04-27T03:06:39;101035.63;;;18.47;68.95
46211;BME280;52144;48.040;-1.594;2023-04-27T03:09:09;101034.75;;;18.70;69.00
46211;BME280;52144;48.040;-1.594;2023-04-27T03:11:37;101032.78;;;18.61;69.03
46211;BME280;52144;48.040;-1.594;2023-04-27T03:14:05;101026.69;;;18.46;68.29
46211;BME280;52144;48.040;-1.594;2023-04-27T03:16:33;101038.03;;;18.38;68.10
46211;BME280;52144;48.040;-1.594;2023-04-27T03:19:01;101033.78;;;18.10;69.27
46211;BME280;52144;48.040;-1.594;2023-04-27T03:21:29;101035.63;;;18.47;69.00
46211;BME280;52144;48.040;-1.594;2023-04-27T03:23:57;101022.91;;;18.12;68.80
46211;BME280;52144;48.040;-1.594;2023-04-27T03:26:26;101031.09;;;18.10;68.75
46211;BME280;52144;48.040;-1.594;2023-04-27T03:28:54;101034.00;;;18.20;70.85
46211;BME280;52144;48.040;-1.594;2023-04-27T03:31:21;101026.94;;;17.93;69.20
46211;BME280;52144;48.040;-1.594;2023-04-27T03:33:49;101017.81;;;18.20;71.14
46211;BME280;52144;48.040;-1.594;2023-04-27T03:36:17;101015.16;;;18.31;71.43
46211;BME280;52144;48.040;-1.594;2023-04-27T03:38:45;101009.44;;;18.36;70.04
46211;BME280;52144;48.040;-1.594;2023-04-27T03:41:12;101011.13;;;18.13;69.10
46211;BME280;52144;48.040;-1.594;2023-04-27T03:43:41;101016.22;;;18.04;71.79
46211;BME280;52144;48.040;-1.594;2023-04-27T03:46:09;101010.31;;;18.36;71.01
46211;BME280;52144;48.040;-1.594;2023-04-27T03:48:37;101011.53;;;18.19;68.61
46211;BME280;52144;48.040;-1.594;2023-04-27T03:51:06;101011.84;;;18.52;70.36
46211;BME280;52144;48.040;-1.594;2023-04-27T03:53:33;101005.09;;;18.22;68.62
46211;BME280;52144;48.040;-1.594;2023-04-27T03:56:01;101003.75;;;18.28;68.83
46211;BME280;52144;48.040;-1.594;2023-04-27T03:58:29;100998.53;;;18.00;68.49
46211;BME280;52144;48.040;-1.594;2023-04-27T04:00:59;100998.41;;;18.15;69.18
46211;BME280;52144;48.040;-1.594;2023-04-27T04:03:26;100995.19;;;18.10;68.49
46211;BME280;52144;48.040;-1.594;2023-04-27T04:05:54;100987.34;;;17.81;69.90
46211;BME280;52144;48.040;-1.594;2023-04-27T04:08:22;100992.44;;;17.73;70.11
46211;BME280;52144;48.040;-1.594;2023-04-27T04:10:50;100988.22;;;17.94;70.54
46211;BME280;52144;48.040;-1.594;2023-04-27T04:13:18;100990.47;;;18.00;70.07
46211;BME280;52144;48.040;-1.594;2023-04-27T04:15:46;100981.66;;;17.86;68.88
46211;BME280;52144;48.040;-1.594;2023-04-27T04:18:15;100968.94;;;17.75;70.33
46211;BME280;52144;48.040;-1.594;2023-04-27T04:20:42;100972.16;;;17.54;71.30
46211;BME280;52144;48.040;-1.594;2023-04-27T04:23:10;100959.88;;;17.63;70.91
46211;BME280;52144;48.040;-1.594;2023-04-27T04:25:38;100954.72;;;17.60;71.80
46211;BME280;52144;48.040;-1.594;2023-04-27T04:28:07;100951.91;;;17.36;72.07
46211;BME280;52144;48.040;-1.594;2023-04-27T04:30:34;100947.22;;;17.27;73.06
46211;BME280;52144;48.040;-1.594;2023-04-27T04:33:02;100952.78;;;17.11;74.32
46211;BME280;52144;48.040;-1.594;2023-04-27T04:35:31;100947.84;;;17.04;74.92
46211;BME280;52144;48.040;-1.594;2023-04-27T04:37:59;100939.44;;;17.09;74.22
46211;BME280;52144;48.040;-1.594;2023-04-27T04:40:27;100929.94;;;17.42;73.90
46211;BME280;52144;48.040;-1.594;2023-04-27T04:42:55;100924.59;;;17.16;73.43
46211;BME280;52144;48.040;-1.594;2023-04-27T04:45:23;100918.03;;;17.08;73.50
46211;BME280;52144;48.040;-1.594;2023-04-27T04:47:50;100908.50;;;16.89;75.43
46211;BME280;52144;48.040;-1.594;2023-04-27T04:50:19;100912.34;;;16.32;78.38
46211;BME280;52144;48.040;-1.594;2023-04-27T04:52:49;100923.00;;;16.61;75.49
46211;BME280;52144;48.040;-1.594;2023-04-27T04:55:17;100938.34;;;16.86;74.69
46211;BME280;52144;48.040;-1.594;2023-04-27T04:57:45;100930.06;;;17.15;73.50
46211;BME280;52144;48.040;-1.594;2023-04-27T05:00:13;100923.94;;;17.38;72.37
46211;BME280;52144;48.040;-1.594;2023-04-27T05:02:41;100924.97;;;17.61;74.08
46211;BME280;52144;48.040;-1.594;2023-04-27T05:05:09;100918.72;;;17.48;71.99
46211;BME280;52144;48.040;-1.594;2023-04-27T05:07:37;100931.75;;;17.54;71.57
46211;BME280;52144;48.040;-1.594;2023-04-27T05:10:06;100929.03;;;17.80;72.65
46211;BME280;52144;48.040;-1.594;2023-04-27T05:12:34;100912.09;;;17.28;71.29
46211;BME280;52144;48.040;-1.594;2023-04-27T05:15:04;100907.78;;;17.38;72.10
46211;BME280;52144;48.040;-1.594;2023-04-27T05:17:32;100926.63;;;17.13;73.60
46211;BME280;52144;48.040;-1.594;2023-04-27T05:20:00;100931.72;;;17.80;73.59
46211;BME280;52144;48.040;-1.594;2023-04-27T05:22:28;100944.16;;;17.44;70.12
46211;BME280;52144;48.040;-1.594;2023-04-27T05:24:55;100942.75;;;17.64;71.33
46211;BME280;52144;48.040;-1.594;2023-04-27T05:27:25;100939.22;;;17.38;69.78
46211;BME280;52144;48.040;-1.594;2023-04-27T05:29:53;100949.56;;;17.57;71.04
46211;BME280;52144;48.040;-1.594;2023-04-27T05:32:21;100947.41;;;17.49;69.81
46211;BME280;52144;48.040;-1.594;2023-04-27T05:34:49;100939.09;;;17.52;71.81
46211;BME280;52144;48.040;-1.594;2023-04-27T05:37:18;100946.72;;;17.58;70.73
46211;BME280;52144;48.040;-1.594;2023-04-27T05:39:46;100942.84;;;17.62;71.05
46211;BME280;52144;48.040;-1.594;2023-04-27T05:42:13;100953.88;;;17.34;70.86
46211;BME280;52144;48.040;-1.594;2023-04-27T05:44:42;100956.31;;;17.75;69.53
46211;BME280;52144;48.040;-1.594;2023-04-27T05:47:10;100952.66;;;17.63;71.48
46211;BME280;52144;48.040;-1.594;2023-04-27T05:49:39;100963.16;;;17.42;71.98
46211;BME280;52144;48.040;-1.594;2023-04-27T05:52:06;100959.47;;;17.31;71.91
46211;BME280;52144;48.040;-1.594;2023-04-27T05:54:34;100947.09;;;17.41;73.65
46211;BME280;52144;48.040;-1.594;2023-04-27T05:57:02;100958.63;;;17.43;72.65
46211;BME280;52144;48.040;-1.594;2023-04-27T05:59:30;100965.91;;;17.67;71.83
46211;BME280;52144;48.040;-1.594;2023-04-27T06:01:59;100968.09;;;17.61;69.80
46211;BME280;52144;48.040;-1.594;2023-04-27T06:04:27;100961.75;;;17.37;72.64
46211;BME280;52144;48.040;-1.594;2023-04-27T06:06:55;100963.34;;;17.52;70.73
46211;BME280;52144;48.040;-1.594;2023-04-27T06:09:23;100969.03;;;17.73;70.67
46211;BME280;52144;48.040;-1.594;2023-04-27T06:11:51;100972.38;;;17.90;71.80
46211;BME280;52144;48.040;-1.594;2023-04-27T06:14:18;100967.88;;;18.14;70.89
46211;BME280;52144;48.040;-1.594;2023-04-27T06:16:46;100974.06;;;18.52;70.34
46211;BME280;52144;48.040;-1.594;2023-04-27T06:19:15;100971.47;;;18.74;68.25
46211;BME280;52144;48.040;-1.594;2023-04-27T06:21:43;100977.47;;;18.67;68.74
46211;BME280;52144;48.040;-1.594;2023-04-27T06:24:11;100976.56;;;18.79;68.99
46211;BME280;52144;48.040;-1.594;2023-04-27T06:26:39;100977.88;;;18.73;68.30
46211;BME280;52144;48.040;-1.594;2023-04-27T06:29:07;100984.00;;;18.75;70.60
46211;BME280;52144;48.040;-1.594;2023-04-27T06:31:35;100975.06;;;18.27;70.59
46211;BME280;52144;48.040;-1.594;2023-04-27T06:34:02;100972.94;;;18.19;72.29
46211;BME280;52144;48.040;-1.594;2023-04-27T06:36:32;100969.59;;;18.88;72.64
46211;BME280;52144;48.040;-1.594;2023-04-27T06:38:59;100961.94;;;18.22;72.79
46211;BME280;52144;48.040;-1.594;2023-04-27T06:41:27;100956.84;;;18.17;73.84
46211;BME280;52144;48.040;-1.594;2023-04-27T06:43:55;100973.63;;;18.58;73.05
46211;BME280;52144;48.040;-1.594;2023-04-27T06:46:24;100969.56;;;19.12;70.30
46211;BME280;52144;48.040;-1.594;2023-04-27T06:48:53;100981.97;;;18.55;70.24
46211;BME280;52144;48.040;-1.594;2023-04-27T06:51:20;100978.97;;;18.47;74.21
46211;BME280;52144;48.040;-1.594;2023-04-27T06:53:49;100987.50;;;18.89;71.61
46211;BME280;52144;48.040;-1.594;2023-04-27T06:56:17;100986.81;;;18.74;73.18
46211;BME280;52144;48.040;-1.594;2023-04-27T06:58:45;100983.44;;;18.59;73.34
46211;BME280;52144;48.040;-1.594;2023-04-27T07:01:13;100989.41;;;18.99;72.38
46211;BME280;52144;48.040;-1.594;2023-04-27T07:03:41;100998.56;;;18.86;72.53
46211;BME280;52144;48.040;-1.594;2023-04-27T07:06:09;100976.00;;;18.98;71.54
46211;BME280;52144;48.040;-1.594;2023-04-27T07:08:37;100972.38;;;18.51;72.13
46211;BME280;52144;48.040;-1.594;2023-04-27T07:11:06;100969.09;;;18.82;72.54
46211;BME280;52144;48.040;-1.594;2023-04-27T07:13:33;100968.69;;;18.52;73.33
46211;BME280;52144;48.040;-1.594;2023-04-27T07:16:01;100968.28;;;18.93;72.22
46211;BME280;52144;48.040;-1.594;2023-04-27T07:18:29;100965.22;;;18.98;72.10
46211;BME280;52144;48.040;-1.594;2023-04-27T07:20:57;100963.75;;;18.45;74.00
46211;BME280;52144;48.040;-1.594;2023-04-27T07:23:25;100971.72;;;18.71;74.41
46211;BME280;52144;48.040;-1.594;2023-04-27T07:25:53;100960.81;;;18.73;74.83
46211;BME280;52144;48.040;-1.594;2023-04-27T07:28:22;100957.03;;;18.75;75.19
46211;BME280;52144;48.040;-1.594;2023-04-27T07:30:50;100958.28;;;18.82;73.67
46211;BME280;52144;48.040;-1.594;2023-04-27T07:33:18;100959.44;;;19.02;75.11
46211;BME280;52144;48.040;-1.594;2023-04-27T07:35:46;100957.53;;;19.16;74.64
46211;BME280;52144;48.040;-1.594;2023-04-27T07:38:15;100961.28;;;19.82;72.64
46211;BME280;52144;48.040;-1.594;2023-04-27T07:40:43;100952.03;;;19.40;72.44
46211;BME280;52144;48.040;-1.594;2023-04-27T07:43:12;100954.13;;;19.81;72.72
46211;BME280;52144;48.040;-1.594;2023-04-27T07:45:42;100950.78;;;19.55;71.51
46211;BME280;52144;48.040;-1.594;2023-04-27T07:48:11;100943.22;;;19.83;72.00
46211;BME280;52144;48.040;-1.594;2023-04-27T07:50:39;100951.31;;;19.38;73.41
46211;BME280;52144;48.040;-1.594;2023-04-27T07:53:07;100952.28;;;19.93;70.66
46211;BME280;52144;48.040;-1.594;2023-04-27T07:55:35;100948.84;;;19.69;71.90
46211;BME280;52144;48.040;-1.594;2023-04-27T07:58:03;100956.34;;;19.88;71.10
46211;BME280;52144;48.040;-1.594;2023-04-27T08:00:31;100963.38;;;20.34;69.32
46211;BME280;52144;48.040;-1.594;2023-04-27T08:03:00;100964.06;;;20.58;68.57
46211;BME280;52144;48.040;-1.594;2023-04-27T08:05:28;100955.13;;;19.80;70.45
46211;BME280;52144;48.040;-1.594;2023-04-27T08:07:57;100959.75;;;20.56;69.08
46211;BME280;52144;48.040;-1.594;2023-04-27T08:10:25;100948.06;;;20.12;69.78
46211;BME280;52144;48.040;-1.594;2023-04-27T08:12:53;100942.16;;;20.18;70.98
46211;BME280;52144;48.040;-1.594;2023-04-27T08:15:21;100941.28;;;20.61;70.52
46211;BME280;52144;48.040;-1.594;2023-04-27T08:17:49;100941.91;;;20.64;71.22
46211;BME280;52144;48.040;-1.594;2023-04-27T08:20:18;100936.75;;;20.18;71.72
46211;BME280;52144;48.040;-1.594;2023-04-27T08:22:46;100927.69;;;19.96;73.45
46211;BME280;52144;48.040;-1.594;2023-04-27T08:25:14;100935.69;;;20.41;70.90
46211;BME280;52144;48.040;-1.594;2023-04-27T08:27:41;100928.63;;;20.07;72.54
46211;BME280;52144;48.040;-1.594;2023-04-27T08:30:10;100931.66;;;20.36;71.79
46211;BME280;52144;48.040;-1.594;2023-04-27T08:32:38;100933.03;;;20.62;69.81
46211;BME280;52144;48.040;-1.594;2023-04-27T08:35:06;100935.34;;;20.67;71.73
46211;BME280;52144;48.040;-1.594;2023-04-27T08:37:35;100928.63;;;20.18;73.10
46211;BME280;52144;48.040;-1.594;2023-04-27T08:40:04;100935.84;;;20.72;71.11
46211;BME280;52144;48.040;-1.594;2023-04-27T08:42:33;100928.34;;;20.86;71.76
46211;BME280;52144;48.040;-1.594;2023-04-27T08:45:02;100927.56;;;20.95;71.18
46211;BME280;52144;48.040;-1.594;2023-04-27T08:47:29;100923.88;;;20.96;71.32
46211;BME280;52144;48.040;-1.594;2023-04-27T08:50:09;100919.31;;;21.17;69.69
46211;BME280;52144;48.040;-1.594;2023-04-27T08:52:38;100925.31;;;20.47;72.65
46211;BME280;52144;48.040;-1.594;2023-04-27T08:55:07;100910.84;;;20.36;76.30
46211;BME280;52144;48.040;-1.594;2023-04-27T08:57:35;100912.44;;;21.13;72.70
46211;BME280;52144;48.040;-1.594;2023-04-27T09:00:04;100914.13;;;21.14;70.34
46211;BME280;52144;48.040;-1.594;2023-04-27T09:02:44;100908.34;;;20.98;71.93
46211;BME280;52144;48.040;-1.594;2023-04-27T09:05:16;100908.41;;;20.66;74.42
46211;BME280;52144;48.040;-1.594;2023-04-27T09:07:56;100905.09;;;21.04;72.45
46211;BME280;52144;48.040;-1.594;2023-04-27T09:10:24;100913.38;;;21.02;73.25
46211;BME280;52144;48.040;-1.594;2023-04-27T09:12:56;100913.31;;;20.93;72.47
46211;BME280;52144;48.040;-1.594;2023-04-27T09:15:24;100910.84;;;21.11;72.92
46211;BME280;52144;48.040;-1.594;2023-04-27T09:17:53;100912.13;;;21.37;71.55
46211;BME280;52144;48.040;-1.594;2023-04-27T09:20:22;100910.44;;;20.94;74.04
46211;BME280;52144;48.040;-1.594;2023-04-27T09:22:53;100911.78;;;21.31;74.37
46211;BME280;52144;48.040;-1.594;2023-04-27T09:25:26;100905.47;;;21.20;76.22
46211;BME280;52144;48.040;-1.594;2023-04-27T09:27:55;100897.50;;;21.90;75.79
46211;BME280;52144;48.040;-1.594;2023-04-27T09:30:23;100899.63;;;21.46;74.47
46211;BME280;52144;48.040;-1.594;2023-04-27T09:32:52;100895.81;;;21.28;77.41
46211;BME280;52144;48.040;-1.594;2023-04-27T09:35:22;100893.72;;;21.41;74.42
46211;BME280;52144;48.040;-1.594;2023-04-27T09:37:50;100893.13;;;21.58;74.82
46211;BME280;52144;48.040;-1.594;2023-04-27T09:40:20;100894.81;;;21.59;75.22
46211;BME280;52144;48.040;-1.594;2023-04-27T09:42:53;100894.44;;;21.64;72.94
46211;BME280;52144;48.040;-1.594;2023-04-27T09:45:22;100891.56;;;21.35;76.29
46211;BME280;52144;48.040;-1.594;2023-04-27T09:47:50;100896.38;;;22.02;74.36
46211;BME280;52144;48.040;-1.594;2023-04-27T09:50:19;100892.47;;;21.76;74.75
46211;BME280;52144;48.040;-1.594;2023-04-27T09:52:47;100890.63;;;21.86;74.31
46211;BME280;52144;48.040;-1.594;2023-04-27T09:55:16;100898.22;;;22.12;72.26
46211;BME280;52144;48.040;-1.594;2023-04-27T09:57:51;100901.00;;;22.31;70.54
46211;BME280;52144;48.040;-1.594;2023-04-27T10:00:34;100895.97;;;22.27;71.29
46211;BME280;52144;48.040;-1.594;2023-04-27T10:03:14;100893.88;;;21.70;75.00
46211;BME280;52144;48.040;-1.594;2023-04-27T10:08:33;100893.41;;;21.34;78.29
46211;BME280;52144;48.040;-1.594;2023-04-27T10:11:12;100886.91;;;21.87;77.69
46211;BME280;52144;48.040;-1.594;2023-04-27T10:13:50;100893.06;;;21.89;74.84
46211;BME280;52144;48.040;-1.594;2023-04-27T10:16:21;100891.78;;;21.93;76.69
46211;BME280;52144;48.040;-1.594;2023-04-27T10:18:50;100889.41;;;21.59;78.03
46211;BME280;52144;48.040;-1.594;2023-04-27T10:21:19;100891.81;;;22.03;78.33
46211;BME280;52144;48.040;-1.594;2023-04-27T10:23:48;100899.72;;;22.35;76.76
46211;BME280;52144;48.040;-1.594;2023-04-27T10:26:23;100899.41;;;22.38;75.16
46211;BME280;52144;48.040;-1.594;2023-04-27T10:28:59;100889.09;;;22.13;75.46
46211;BME280;52144;48.040;-1.594;2023-04-27T10:31:32;100887.63;;;21.89;76.85
46211;BME280;52144;48.040;-1.594;2023-04-27T10:34:07;100891.06;;;21.91;77.96
46211;BME280;52144;48.040;-1.594;2023-04-27T10:36:36;100893.44;;;22.35;77.26
46211;BME280;52144;48.040;-1.594;2023-04-27T10:39:14;100884.41;;;22.15;77.08
46211;BME280;52144;48.040;-1.594;2023-04-27T10:41:50;100885.94;;;22.08;76.81
46211;BME280;52144;48.040;-1.594;2023-04-27T10:44:24;100876.09;;;22.16;76.48
46211;BME280;52144;48.040;-1.594;2023-04-27T10:46:57;100856.44;;;22.34;78.31
46211;BME280;52144;48.040;-1.594;2023-04-27T10:49:26;100854.03;;;21.61;79.51
46211;BME280;52144;48.040;-1.594;2023-04-27T10:51:57;100861.09;;;21.93;79.58
46211;BME280;52144;48.040;-1.594;2023-04-27T10:54:26;100865.91;;;21.39;82.13
46211;BME280;52144;48.040;-1.594;2023-04-27T10:57:01;100856.81;;;22.10;79.57
46211;BME280;52144;48.040;-1.594;2023-04-27T10:59:29;100859.53;;;21.90;79.11
46211;BME280;52144;48.040;-1.594;2023-04-27T11:01:58;100858.81;;;22.17;77.33
46211;BME280;52144;48.040;-1.594;2023-04-27T11:04:37;100854.94;;;22.10;77.50
46211;BME280;52144;48.040;-1.594;2023-04-27T11:07:05;100855.97;;;22.09;77.83
46211;BME280;52144;48.040;-1.594;2023-04-27T11:09:34;100851.25;;;22.21;76.81
46211;BME280;52144;48.040;-1.594;2023-04-27T11:12:05;100840.25;;;22.22;78.80
46211;BME280;52144;48.040;-1.594;2023-04-27T11:14:34;100850.97;;;22.63;78.45
46211;BME280;52144;48.040;-1.594;2023-04-27T11:17:04;100857.53;;;22.80;76.52
46211;BME280;52144;48.040;-1.594;2023-04-27T11:19:31;100859.09;;;21.95;80.19
46211;BME280;52144;48.040;-1.594;2023-04-27T11:22:03;100853.81;;;21.93;82.26
46211;BME280;52144;48.040;-1.594;2023-04-27T11:24:31;100846.09;;;22.18;81.62
46211;BME280;52144;48.040;-1.594;2023-04-27T11:26:59;100841.28;;;22.31;80.32
46211;BME280;52144;48.040;-1.594;2023-04-27T11:29:36;100837.28;;;22.26;79.86
46211;BME280;52144;48.040;-1.594;2023-04-27T11:32:06;100824.69;;;22.63;79.94
46211;BME280;52144;48.040;-1.594;2023-04-27T11:34:34;100826.22;;;23.23;76.92
46211;BME280;52144;48.040;-1.594;2023-04-27T11:37:05;100825.47;;;22.83;78.15
46211;BME280;52144;48.040;-1.594;2023-04-27T11:39:38;100829.28;;;22.53;78.91
46211;BME280;52144;48.040;-1.594;2023-04-27T11:42:16;100827.16;;;22.94;77.33
46211;BME280;52144;48.040;-1.594;2023-04-27T11:44:50;100840.53;;;22.68;78.07
46211;BME280;52144;48.040;-1.594;2023-04-27T11:47:20;100842.22;;;22.79;78.12
46211;BME280;52144;48.040;-1.594;2023-04-27T11:49:49;100835.09;;;22.78;78.91
46211;BME280;52144;48.040;-1.594;2023-04-27T11:52:17;100835.34;;;22.84;77.58
46211;BME280;52144;48.040;-1.594;2023-04-27T11:54:47;100835.38;;;23.22;76.32
46211;BME280;52144;48.040;-1.594;2023-04-27T11:57:15;100825.06;;;23.53;76.43
46211;BME280;52144;48.040;-1.594;2023-04-27T11:59:43;100826.44;;;23.39;75.06
46211;BME280;52144;48.040;-1.594;2023-04-27T12:02:10;100819.25;;;23.20;75.17
46211;BME280;52144;48.040;-1.594;2023-04-27T12:04:40;100817.28;;;23.03;71.24
46211;BME280;52144;48.040;-1.594;2023-04-27T12:07:08;100817.28;;;22.93;74.37
46211;BME280;52144;48.040;-1.594;2023-04-27T12:09:37;100811.16;;;22.91;73.75
46211;BME280;52144;48.040;-1.594;2023-04-27T12:12:05;100816.13;;;22.49;78.83
46211;BME280;52144;48.040;-1.594;2023-04-27T12:14:33;100819.78;;;22.67;78.09
46211;BME280;52144;48.040;-1.594;2023-04-27T12:17:01;100817.44;;;23.01;76.08
46211;BME280;52144;48.040;-1.594;2023-04-27T12:19:29;100817.63;;;22.80;78.85
46211;BME280;52144;48.040;-1.594;2023-04-27T12:21:58;100814.19;;;22.78;78.28
46211;BME280;52144;48.040;-1.594;2023-04-27T12:24:26;100810.91;;;22.84;77.39
46211;BME280;52144;48.040;-1.594;2023-04-27T12:26:54;100798.38;;;23.11;75.24
46211;BME280;52144;48.040;-1.594;2023-04-27T12:29:22;100805.38;;;23.14;76.82
46211;BME280;52144;48.040;-1.594;2023-04-27T12:31:50;100796.28;;;23.33;76.34
46211;BME280;52144;48.040;-1.594;2023-04-27T12:34:17;100802.34;;;23.44;76.25
46211;BME280;52144;48.040;-1.594;2023-04-27T12:36:45;100796.38;;;23.41;75.10
46211;BME280;52144;48.040;-1.594;2023-04-27T12:39:16;100802.94;;;23.38;76.95
46211;BME280;52144;48.040;-1.594;2023-04-27T12:41:46;100796.00;;;23.54;76.58
46211;BME280;52144;48.040;-1.594;2023-04-27T12:44:14;100803.41;;;23.61;73.46
46211;BME280;52144;48.040;-1.594;2023-04-27T12:46:43;100797.88;;;23.53;73.52
46211;BME280;52144;48.040;-1.594;2023-04-27T12:49:12;100795.34;;;23.70;71.92
46211;BME280;52144;48.040;-1.594;2023-04-27T12:51:40;100793.66;;;23.59;72.59